createdAt,value
2018-06-04T00:00:11.550Z,98240.74
2018-06-04T00:02:40.030Z,98251.91
2018-06-04T00:05:08.471Z,98259.78
2018-06-04T00:07:36.951Z,98264.06
2018-06-04T00:10:05.489Z,98275.75
2018-06-04T00:12:33.944Z,98280.53
2018-06-04T00:15:02.394Z,98285.03
2018-06-04T00:17:30.851Z,98297.93
2018-06-04T00:19:59.282Z,98290.56
2018-06-04T00:22:27.746Z,98288.27
2018-06-04T00:24:56.222Z,98292.24
2018-06-04T00:27:24.702Z,98300.51
2018-06-04T00:29:53.173Z,98291.84
2018-06-04T00:32:21.591Z,98296.47
2018-06-04T00:34:50.022Z,98298.20
2018-06-04T00:37:18.476Z,98293.50
2018-06-04T00:39:46.887Z,98290.04
2018-06-04T00:42:15.273Z,98297.06
2018-06-04T00:44:43.754Z,98307.05
2018-06-04T00:47:12.173Z,98307.74
2018-06-04T00:49:40.709Z,98303.88
2018-06-04T00:52:09.117Z,98308.42
2018-06-04T00:54:37.470Z,98307.74
2018-06-04T00:57:05.903Z,98305.41
2018-06-04T00:59:34.338Z,98304.59
2018-06-04T01:02:02.722Z,98303.38
2018-06-04T01:04:31.086Z,98303.07
2018-06-04T01:06:59.502Z,98302.23
2018-06-04T01:09:27.960Z,98302.23
2018-06-04T01:11:56.445Z,98299.84
2018-06-04T01:14:24.818Z,98298.12
2018-06-04T01:16:53.297Z,98286.98
2018-06-04T01:19:21.722Z,98289.33
2018-06-04T01:21:50.115Z,98281.59
2018-06-04T01:24:18.602Z,98283.06
2018-06-04T01:26:47.016Z,98274.80
2018-06-04T01:29:15.433Z,98275.25
2018-06-04T01:31:43.883Z,98278.19
2018-06-04T01:34:12.298Z,98274.80
2018-06-04T01:36:40.750Z,98274.97
2018-06-04T01:39:09.155Z,98270.22
2018-06-04T01:41:37.678Z,98272.63
2018-06-04T01:44:06.126Z,98262.64
2018-06-04T01:46:34.571Z,98260.13
2018-06-04T01:49:02.989Z,98256.30
2018-06-04T01:51:31.418Z,98253.09
2018-06-04T01:53:59.814Z,98240.75
2018-06-04T01:56:28.224Z,98240.77
2018-06-04T01:58:56.703Z,98244.16
2018-06-04T02:01:25.141Z,98236.72
2018-06-04T02:03:53.615Z,98238.06
2018-06-04T02:06:21.994Z,98232.36
2018-06-04T02:08:50.402Z,98230.32
2018-06-04T02:11:19.040Z,98228.45
2018-06-04T02:13:47.473Z,98224.78
2018-06-04T02:16:15.959Z,98225.70
2018-06-04T02:18:44.466Z,98225.70
2018-06-04T02:21:12.894Z,98227.40
2018-06-04T02:23:41.529Z,98224.32
2018-06-04T02:26:10.005Z,98214.45
2018-06-04T02:28:38.449Z,98213.80
2018-06-04T02:31:06.865Z,98219.20
2018-06-04T02:33:35.315Z,98217.92
2018-06-04T02:36:03.707Z,98217.56
2018-06-04T02:38:32.159Z,98216.59
2018-06-04T02:41:00.551Z,98210.22
2018-06-04T02:43:28.920Z,98215.53
2018-06-04T02:45:57.327Z,98213.05
2018-06-04T02:48:25.838Z,98211.92
2018-06-04T02:50:54.354Z,98211.14
2018-06-04T02:53:22.748Z,98204.55
2018-06-04T02:55:51.153Z,98198.30
2018-06-04T02:58:19.605Z,98201.78
2018-06-04T03:00:48.093Z,98204.70
2018-06-04T03:03:16.483Z,98204.03
2018-06-04T03:05:45.259Z,98205.59
2018-06-04T03:08:13.639Z,98206.44
2018-06-04T03:10:42.127Z,98199.04
2018-06-04T03:13:10.485Z,98195.47
2018-06-04T03:15:38.882Z,98197.34
2018-06-04T03:18:07.254Z,98194.63
2018-06-04T03:20:35.649Z,98197.99
2018-06-04T03:23:04.026Z,98192.75
2018-06-04T03:25:33.418Z,98184.17
2018-06-04T03:28:01.800Z,98185.70
2018-06-04T03:30:30.226Z,98186.05
2018-06-04T03:32:58.662Z,98185.84
2018-06-04T03:35:27.442Z,98184.51
2018-06-04T03:37:55.836Z,98178.47
2018-06-04T03:40:24.227Z,98180.50
2018-06-04T03:42:52.733Z,98176.46
2018-06-04T03:45:21.191Z,98173.80
2018-06-04T03:47:49.652Z,98171.28
2018-06-04T03:50:18.074Z,98165.56
2018-06-04T03:52:46.543Z,98169.81
2018-06-04T03:55:14.984Z,98165.72
2018-06-04T03:57:43.418Z,98172.63
2018-06-04T04:00:11.859Z,98165.23
2018-06-04T04:02:40.358Z,98176.67
2018-06-04T04:05:08.846Z,98174.48
2018-06-04T04:07:37.374Z,98178.55
2018-06-04T04:10:05.802Z,98172.47
2018-06-04T04:12:34.285Z,98172.63
2018-06-04T04:15:02.717Z,98174.65
2018-06-04T04:17:31.134Z,98168.05
2018-06-04T04:19:59.609Z,98162.11
2018-06-04T04:22:27.986Z,98160.38
2018-06-04T04:24:56.352Z,98164.54
2018-06-04T04:27:24.743Z,98168.73
2018-06-04T04:29:53.124Z,98158.67
2018-06-04T04:32:21.511Z,98153.06
2018-06-04T04:34:49.982Z,98158.23
2018-06-04T04:37:18.386Z,98152.42
2018-06-04T04:39:46.884Z,98157.58
2018-06-04T04:42:15.779Z,98162.09
2018-06-04T04:44:44.206Z,98160.00
2018-06-04T04:47:12.614Z,98161.64
2018-06-04T04:52:17.590Z,98160.57
2018-06-04T04:54:46.034Z,98151.73
2018-06-04T04:57:14.511Z,98152.33
2018-06-04T04:59:42.913Z,98152.89
2018-06-04T05:02:11.400Z,98149.43
2018-06-04T05:04:39.874Z,98154.77
2018-06-04T05:07:08.358Z,98150.27
2018-06-04T05:09:36.830Z,98151.23
2018-06-04T05:12:05.310Z,98154.73
2018-06-04T05:14:33.791Z,98157.20
2018-06-04T05:17:02.290Z,98149.73
2018-06-04T05:19:30.743Z,98149.30
2018-06-04T05:21:59.120Z,98141.72
2018-06-04T05:24:27.506Z,98137.92
2018-06-04T05:26:55.966Z,98139.20
2018-06-04T05:29:24.378Z,98135.75
2018-06-04T05:31:52.839Z,98132.78
2018-06-04T05:34:21.314Z,98131.24
2018-06-04T05:36:49.718Z,98131.77
2018-06-04T05:39:18.226Z,98125.43
2018-06-04T05:41:46.694Z,98122.72
2018-06-04T05:44:15.178Z,98125.51
2018-06-04T05:46:43.655Z,98132.91
2018-06-04T05:49:12.122Z,98126.52
2018-06-04T05:51:40.611Z,98126.66
2018-06-04T05:54:09.098Z,98117.95
2018-06-04T05:56:37.541Z,98117.67
2018-06-04T05:59:05.984Z,98117.44
2018-06-04T06:01:34.442Z,98113.24
2018-06-04T06:04:03.215Z,98111.67
2018-06-04T06:06:31.671Z,98113.55
2018-06-04T06:09:00.078Z,98114.13
2018-06-04T06:11:28.535Z,98106.24
2018-06-04T06:13:56.941Z,98106.89
2018-06-04T06:16:25.981Z,98111.03
2018-06-04T06:18:54.442Z,98110.28
2018-06-04T06:21:23.124Z,98110.41
2018-06-04T06:23:51.722Z,98113.38
2018-06-04T06:26:20.161Z,98109.48
2018-06-04T06:28:48.649Z,98108.67
2018-06-04T06:31:17.168Z,98109.73
2018-06-04T06:33:45.609Z,98107.66
2018-06-04T06:36:14.081Z,98104.78
2018-06-04T06:38:42.571Z,98110.81
2018-06-04T06:41:11.724Z,98106.84
2018-06-04T06:43:43.901Z,98103.71
2018-06-04T06:46:15.566Z,98106.06
2018-06-04T06:48:46.863Z,98104.15
2018-06-04T06:51:18.661Z,98109.19
2018-06-04T06:53:49.690Z,98107.12
2018-06-04T06:56:20.944Z,98107.58
2018-06-04T06:58:51.679Z,98109.25
2018-06-04T07:01:24.452Z,98111.90
2018-06-04T07:03:56.920Z,98110.66
2018-06-04T07:06:29.480Z,98116.95
2018-06-04T07:09:00.733Z,98111.25
2018-06-04T07:11:32.501Z,98108.76
2018-06-04T07:14:04.474Z,98106.05
2018-06-04T07:16:35.243Z,98100.58
2018-06-04T07:19:07.050Z,98097.66
2018-06-04T07:21:39.474Z,98100.27
2018-06-04T07:24:10.965Z,98099.13
2018-06-04T07:26:43.762Z,98097.05
2018-06-04T07:29:15.503Z,98096.91
2018-06-04T07:31:46.645Z,98093.89
2018-06-04T07:34:18.299Z,98092.02
2018-06-04T07:36:49.438Z,98092.34
2018-06-04T07:39:20.381Z,98096.66
2018-06-04T07:41:51.209Z,98101.14
2018-06-04T07:44:22.844Z,98098.81
2018-06-04T07:49:23.448Z,98085.03
2018-06-04T07:51:55.664Z,98084.77
2018-06-04T07:54:26.810Z,98087.35
2018-06-04T07:56:57.239Z,98082.97
2018-06-04T07:59:28.169Z,98076.88
2018-06-04T08:02:00.539Z,98079.34
2018-06-04T08:04:31.573Z,98078.81
2018-06-04T08:07:02.611Z,98070.84
2018-06-04T08:09:34.675Z,98073.27
2018-06-04T08:12:06.745Z,98076.83
2018-06-04T08:14:38.703Z,98078.08
2018-06-04T08:17:10.660Z,98070.73
2018-06-04T08:19:41.688Z,98078.54
2018-06-04T08:22:14.852Z,98068.09
2018-06-04T08:24:46.029Z,98065.91
2018-06-04T08:27:16.685Z,98064.72
2018-06-04T08:29:47.284Z,98066.94
2018-06-04T08:32:18.216Z,98066.20
2018-06-04T08:34:48.762Z,98057.58
2018-06-04T08:37:20.403Z,98049.69
2018-06-04T08:39:51.233Z,98053.91
2018-06-04T08:42:22.552Z,98051.18
2018-06-04T08:44:54.159Z,98051.18
2018-06-04T08:47:24.861Z,98044.52
2018-06-04T08:49:56.004Z,98050.78
2018-06-04T08:52:27.141Z,98052.93
2018-06-04T08:54:58.589Z,98057.76
2018-06-04T08:57:29.419Z,98050.67
2018-06-04T09:00:00.053Z,98051.13
2018-06-04T09:02:33.448Z,98046.23
2018-06-04T09:05:05.199Z,98045.09
2018-06-04T09:07:37.160Z,98050.59
2018-06-04T09:10:08.921Z,98041.63
2018-06-04T09:12:40.970Z,98039.34
2018-06-04T09:15:13.347Z,98041.43
2018-06-04T09:17:44.897Z,98042.25
2018-06-04T09:20:17.702Z,98039.73
2018-06-04T09:22:49.204Z,98041.43
2018-06-04T09:25:21.183Z,98044.66
2018-06-04T09:27:52.121Z,98040.95
2018-06-04T09:30:23.672Z,98046.04
2018-06-04T09:32:55.147Z,98043.64
2018-06-04T09:35:26.261Z,98042.42
2018-06-04T09:37:59.340Z,98039.63
2018-06-04T09:40:30.283Z,98029.31
2018-06-04T09:43:01.026Z,98030.36
2018-06-04T09:45:32.464Z,98025.34
2018-06-04T09:48:03.937Z,98020.60
2018-06-04T09:50:35.765Z,98018.99
2018-06-04T09:53:07.885Z,98022.68
2018-06-04T09:55:39.999Z,98017.70
2018-06-04T09:58:11.234Z,98020.09
2018-06-04T10:00:43.849Z,98015.47
2018-06-04T10:03:15.264Z,98020.14
2018-06-04T10:05:46.700Z,98015.84
2018-06-04T10:08:20.064Z,98012.09
2018-06-04T10:10:51.246Z,98015.26
2018-06-04T10:13:22.282Z,98016.64
2018-06-04T10:15:53.417Z,98013.77
2018-06-04T10:18:25.382Z,98013.70
2018-06-04T10:20:57.955Z,98008.12
2018-06-04T10:23:29.301Z,98002.20
2018-06-04T10:25:59.725Z,97995.66
2018-06-04T10:28:30.764Z,97995.59
2018-06-04T10:31:01.672Z,98003.14
2018-06-04T10:33:33.378Z,97997.77
2018-06-04T10:36:04.675Z,98001.73
2018-06-04T10:38:36.657Z,97995.91
2018-06-04T10:41:08.211Z,97995.55
2018-06-04T10:43:36.761Z,97994.58
2018-06-04T10:46:05.338Z,97994.77
2018-06-04T10:48:33.843Z,97996.80
2018-06-04T10:51:02.242Z,97994.30
2018-06-04T10:53:30.786Z,97991.52
2018-06-04T10:56:00.160Z,97991.25
2018-06-04T10:58:28.630Z,97999.69
2018-06-04T11:00:57.078Z,97998.84
2018-06-04T11:03:25.614Z,97990.61
2018-06-04T11:05:54.118Z,97985.34
2018-06-04T11:08:22.593Z,97979.23
2018-06-04T11:10:50.975Z,97982.69
2018-06-04T11:13:19.451Z,97981.97
2018-06-04T11:15:47.930Z,97978.94
2018-06-04T11:18:16.470Z,97975.06
2018-06-04T11:20:44.871Z,97976.73
2018-06-04T11:23:13.255Z,97975.11
2018-06-04T11:25:41.764Z,97969.38
2018-06-04T11:28:10.099Z,97967.70
2018-06-04T11:30:40.571Z,97964.59
2018-06-04T11:33:09.142Z,97953.59
2018-06-04T11:35:40.102Z,97960.88
2018-06-04T11:38:08.630Z,97966.03
2018-06-04T11:40:36.994Z,97957.91
2018-06-04T11:43:08.539Z,97955.77
2018-06-04T11:45:40.577Z,97960.20
2018-06-04T11:48:11.812Z,97946.48
2018-06-04T11:50:43.268Z,97946.39
2018-06-04T11:53:14.616Z,97950.36
2018-06-04T11:55:45.033Z,97941.89
2018-06-04T11:58:16.256Z,97946.52
2018-06-04T12:00:47.839Z,97939.43
2018-06-04T12:03:19.898Z,97929.94
2018-06-04T12:05:51.146Z,97927.68
2018-06-04T12:08:22.810Z,97934.72
2018-06-04T12:10:53.834Z,97927.79
2018-06-04T12:13:25.905Z,97926.11
2018-06-04T12:15:58.569Z,97924.17
2018-06-04T12:18:29.400Z,97920.28
2018-06-04T12:21:00.953Z,97912.98
2018-06-04T12:23:31.716Z,97918.45
2018-06-04T12:26:02.307Z,97905.95
2018-06-04T12:28:32.739Z,97898.03
2018-06-04T12:31:02.853Z,97889.34
2018-06-04T12:33:32.773Z,97880.80
2018-06-04T12:36:02.891Z,97875.08
2018-06-04T12:38:33.252Z,97876.34
2018-06-04T12:41:03.739Z,97871.59
2018-06-04T12:43:34.164Z,97867.42
2018-06-04T12:46:05.403Z,97860.15
2018-06-04T12:48:36.600Z,97862.27
2018-06-04T12:51:09.532Z,97861.42
2018-06-04T12:53:41.907Z,97856.97
2018-06-04T12:56:13.509Z,97847.27
2018-06-04T12:58:45.327Z,97853.02
2018-06-04T13:01:16.562Z,97841.64
2018-06-04T13:03:47.509Z,97843.78
2018-06-04T13:06:19.351Z,97835.50
2018-06-04T13:08:50.695Z,97830.74
2018-06-04T13:11:22.654Z,97818.64
2018-06-04T13:13:54.202Z,97815.53
2018-06-04T13:16:25.784Z,97818.91
2018-06-04T13:18:58.639Z,97801.25
2018-06-04T13:21:31.270Z,97801.17
2018-06-04T13:24:02.253Z,97797.45
2018-06-04T13:26:34.548Z,97801.37
2018-06-04T13:29:06.895Z,97789.86
2018-06-04T13:31:38.483Z,97786.92
2018-06-04T13:34:08.967Z,97781.61
2018-06-04T13:36:40.111Z,97784.64
2018-06-04T13:39:11.660Z,97789.44
2018-06-04T13:41:43.106Z,97780.20
2018-06-04T13:44:14.613Z,97773.64
2018-06-04T13:46:46.518Z,97762.88
2018-06-04T13:49:17.914Z,97773.02
2018-06-04T13:51:48.598Z,97756.70
2018-06-04T13:54:19.503Z,97751.33
2018-06-04T13:56:50.365Z,97741.33
2018-06-04T13:59:22.113Z,97746.84
2018-06-04T14:01:52.441Z,97746.13
2018-06-04T14:04:23.994Z,97741.97
2018-06-04T14:06:54.069Z,97744.55
2018-06-04T14:09:23.815Z,97742.23
2018-06-04T14:11:53.833Z,97741.66
2018-06-04T14:14:24.770Z,97739.19
2018-06-04T14:16:55.732Z,97731.77
2018-06-04T14:19:26.271Z,97726.92
2018-06-04T14:21:58.665Z,97725.65
2018-06-04T14:24:30.314Z,97727.22
2018-06-04T14:27:01.397Z,97723.81
2018-06-04T14:29:32.043Z,97729.79
2018-06-04T14:32:02.946Z,97723.21
2018-06-04T14:34:34.304Z,97726.95
2018-06-04T14:37:05.114Z,97720.52
2018-06-04T14:39:36.199Z,97713.07
2018-06-04T14:42:07.527Z,97721.66
2018-06-04T14:44:39.130Z,97716.74
2018-06-04T14:47:10.321Z,97723.00
2018-06-04T14:49:41.220Z,97713.59
2018-06-04T14:52:13.521Z,97706.25
2018-06-04T14:54:45.382Z,97707.42
2018-06-04T14:57:17.338Z,97707.55
2018-06-04T14:59:48.894Z,97696.41
2018-06-04T15:02:21.665Z,97700.96
2018-06-04T15:04:54.043Z,97692.81
2018-06-04T15:07:24.892Z,97687.52
2018-06-04T15:09:56.667Z,97680.64
2018-06-04T15:12:28.071Z,97668.06
2018-06-04T15:14:59.631Z,97669.95
2018-06-04T15:17:30.378Z,97663.67
2018-06-04T15:20:01.477Z,97655.13
2018-06-04T15:22:33.647Z,97647.16
2018-06-04T15:25:04.196Z,97644.38
2018-06-04T15:27:34.918Z,97643.75
2018-06-04T15:30:06.482Z,97642.09
2018-06-04T15:32:37.332Z,97655.81
2018-06-04T15:35:07.329Z,97650.36
2018-06-04T15:37:37.787Z,97646.25
2018-06-04T15:40:08.478Z,97649.35
2018-06-04T15:42:37.064Z,97643.18
2018-06-04T15:45:05.938Z,97632.50
2018-06-04T15:47:34.424Z,97641.72
2018-06-04T15:50:02.856Z,97642.90
2018-06-04T15:52:31.338Z,97638.10
2018-06-04T15:54:59.839Z,97642.55
2018-06-04T15:57:28.299Z,97647.00
2018-06-04T15:59:56.855Z,97645.52
2018-06-04T16:02:25.550Z,97652.10
2018-06-04T16:04:54.112Z,97657.37
2018-06-04T16:07:22.519Z,97667.95
2018-06-04T16:09:51.068Z,97661.56
2018-06-04T16:12:19.471Z,97666.60
2018-06-04T16:14:47.856Z,97657.23
2018-06-04T16:17:16.354Z,97654.97
2018-06-04T16:19:44.806Z,97656.38
2018-06-04T16:22:13.277Z,97633.97
2018-06-04T16:24:41.709Z,97612.11
2018-06-04T16:27:10.150Z,97606.73
2018-06-04T16:29:38.646Z,97603.14
2018-06-04T16:32:07.132Z,97595.66
2018-06-04T16:34:35.661Z,97588.25
2018-06-04T16:37:04.553Z,97583.05
2018-06-04T16:39:33.154Z,97583.55
2018-06-04T16:42:01.557Z,97597.25
2018-06-04T16:44:29.953Z,97600.63
2018-06-04T16:46:58.433Z,97606.18
2018-06-04T16:49:26.987Z,97617.62
2018-06-04T16:51:55.537Z,97629.16
2018-06-04T16:54:24.064Z,97633.44
2018-06-04T16:56:52.473Z,97657.60
2018-06-04T16:59:21.097Z,97681.89
2018-06-04T17:01:49.470Z,97679.89
2018-06-04T17:04:17.901Z,97686.72
2018-06-04T17:06:46.266Z,97694.98
2018-06-04T17:09:14.823Z,97693.23
2018-06-04T17:11:43.238Z,97704.14
2018-06-04T17:14:11.809Z,97702.31
2018-06-04T17:16:40.324Z,97689.14
2018-06-04T17:19:08.941Z,97682.89
2018-06-04T17:21:40.412Z,97696.19
2018-06-04T17:24:08.833Z,97703.96
2018-06-04T17:26:37.295Z,97699.80
2018-06-04T17:29:05.888Z,97692.79
2018-06-04T17:31:34.318Z,97683.44
2018-06-04T17:34:02.784Z,97681.52
2018-06-04T17:36:31.419Z,97693.95
2018-06-04T17:38:59.876Z,97720.47
2018-06-04T17:41:28.291Z,97738.13
2018-06-04T17:43:56.743Z,97755.34
2018-06-04T17:46:25.215Z,97770.11
2018-06-04T17:48:53.761Z,97783.67
2018-06-04T17:51:22.615Z,97783.35
2018-06-04T17:53:51.048Z,97779.98
2018-06-04T17:56:19.443Z,97798.95
2018-06-04T17:58:47.902Z,97816.17
2018-06-04T18:01:16.419Z,97838.66
2018-06-04T18:03:45.162Z,97863.95
2018-06-04T18:06:13.851Z,97875.37
2018-06-04T18:08:42.721Z,97891.10
2018-06-04T18:13:32.832Z,97908.88
2018-06-04T18:16:01.313Z,97915.63
2018-06-04T18:18:30.699Z,97904.45
2018-06-04T18:20:59.544Z,97887.41
2018-06-04T18:23:28.189Z,97876.95
2018-06-04T18:25:56.797Z,97879.73
2018-06-04T18:28:25.314Z,97893.28
2018-06-04T18:30:53.857Z,97904.14
2018-06-04T18:33:22.379Z,97926.06
2018-06-04T18:35:50.850Z,97940.22
2018-06-04T18:38:19.412Z,97940.38
2018-06-04T18:40:47.866Z,97926.72
2018-06-04T18:43:16.550Z,97934.03
2018-06-04T18:45:45.543Z,97942.37
2018-06-04T18:48:14.063Z,97943.98
2018-06-04T18:50:42.748Z,97946.09
2018-06-04T18:53:11.288Z,97930.82
2018-06-04T18:55:39.755Z,97941.34
2018-06-04T18:58:08.769Z,97943.48
2018-06-04T19:00:37.222Z,97934.57
2018-06-04T19:03:05.722Z,97928.66
2018-06-04T19:05:34.194Z,97937.10
2018-06-04T19:08:02.810Z,97937.94
2018-06-04T19:10:31.461Z,97947.29
2018-06-04T19:12:59.929Z,97962.72
2018-06-04T19:15:28.477Z,97960.26
2018-06-04T19:17:56.978Z,97969.08
2018-06-04T19:20:25.814Z,97959.70
2018-06-04T19:22:54.433Z,97954.67
2018-06-04T19:25:22.863Z,97950.80
2018-06-04T19:27:51.771Z,97956.13
2018-06-04T19:30:20.230Z,97952.85
2018-06-04T19:32:48.782Z,97944.94
2018-06-04T19:35:17.319Z,97944.94
2018-06-04T19:37:45.806Z,97951.71
2018-06-04T19:40:14.241Z,97954.28
2018-06-04T19:42:42.891Z,97974.23
2018-06-04T19:45:11.327Z,97988.73
2018-06-04T19:47:40.046Z,97989.22
2018-06-04T19:50:08.479Z,97984.19
2018-06-04T19:52:37.012Z,97986.16
2018-06-04T19:55:06.019Z,97989.39
2018-06-04T19:57:34.434Z,97976.77
2018-06-04T20:00:03.066Z,97973.24
2018-06-04T20:02:32.220Z,97967.82
2018-06-04T20:05:00.981Z,97974.77
2018-06-04T20:07:29.389Z,97975.73
2018-06-04T20:09:57.887Z,97991.94
2018-06-04T20:12:26.359Z,97982.72
2018-06-04T20:14:54.958Z,97984.20
2018-06-04T20:17:23.419Z,97978.05
2018-06-04T20:19:52.386Z,97974.08
2018-06-04T20:22:20.845Z,97970.06
2018-06-04T20:24:50.146Z,97971.71
2018-06-04T20:27:19.373Z,97969.22
2018-06-04T20:29:47.897Z,97958.57
2018-06-04T20:32:16.399Z,97948.83
2018-06-04T20:34:44.915Z,97947.48
2018-06-04T20:37:13.362Z,97944.98
2018-06-04T20:39:42.143Z,97950.45
2018-06-04T20:42:10.650Z,97946.86
2018-06-04T20:44:39.202Z,97940.80
2018-06-04T20:47:07.831Z,97942.98
2018-06-04T20:49:36.538Z,97963.98
2018-06-04T20:52:05.290Z,97974.19
2018-06-04T20:54:33.857Z,97981.31
2018-06-04T20:57:02.397Z,97980.71
2018-06-04T20:59:30.932Z,97964.34
2018-06-04T21:01:59.611Z,97966.95
2018-06-04T21:04:28.091Z,97984.90
2018-06-04T21:06:56.689Z,97975.61
2018-06-04T21:09:25.316Z,97961.06
2018-06-04T21:11:53.872Z,97964.02
2018-06-04T21:14:25.110Z,97962.15
2018-06-04T21:16:53.652Z,97949.05
2018-06-04T21:19:22.158Z,97949.57
2018-06-04T21:21:50.981Z,97945.38
2018-06-04T21:24:19.377Z,97930.09
2018-06-04T21:26:47.890Z,97925.59
2018-06-04T21:29:16.993Z,97918.72
2018-06-04T21:31:45.626Z,97922.48
2018-06-04T21:34:14.021Z,97928.87
2018-06-04T21:36:42.530Z,97936.02
2018-06-04T21:39:11.078Z,97936.33
2018-06-04T21:41:39.600Z,97936.08
2018-06-04T21:44:08.056Z,97940.09
2018-06-04T21:46:37.105Z,97935.56
2018-06-04T21:49:05.861Z,97932.23
2018-06-04T21:51:34.354Z,97934.41
2018-06-04T21:54:02.799Z,97930.40
2018-06-04T21:56:31.326Z,97926.38
2018-06-04T21:58:59.765Z,97936.11
2018-06-04T22:01:28.297Z,97929.21
2018-06-04T22:03:56.760Z,97919.05
2018-06-04T22:06:25.160Z,97924.45
2018-06-04T22:08:53.615Z,97929.55
2018-06-04T22:11:22.139Z,97926.84
2018-06-04T22:13:50.550Z,97933.27
2018-06-04T22:16:19.067Z,97928.06
2018-06-04T22:18:47.495Z,97935.53
2018-06-04T22:21:15.913Z,97934.95
2018-06-04T22:23:44.365Z,97931.06
2018-06-04T22:26:12.878Z,97928.27
2018-06-04T22:28:41.373Z,97927.70
2018-06-04T22:31:09.851Z,97928.36
2018-06-04T22:33:38.307Z,97932.15
2018-06-04T22:36:06.778Z,97933.19
2018-06-04T22:38:35.274Z,97923.72
2018-06-04T22:41:03.758Z,97924.69
2018-06-04T22:43:32.256Z,97927.19
2018-06-04T22:46:00.702Z,97925.61
2018-06-04T22:48:29.623Z,97923.48
2018-06-04T22:50:58.086Z,97912.98
2018-06-04T22:53:26.491Z,97918.66
2018-06-04T22:55:55.027Z,97909.52
2018-06-04T22:58:23.430Z,97910.79
2018-06-04T23:00:51.948Z,97904.14
2018-06-04T23:03:20.407Z,97915.48
2018-06-04T23:05:48.976Z,97919.28
2018-06-04T23:08:17.446Z,97927.13
2018-06-04T23:10:45.923Z,97929.45
2018-06-04T23:13:14.326Z,97932.15
2018-06-04T23:15:42.773Z,97928.24
2018-06-04T23:18:11.202Z,97920.33
2018-06-04T23:20:39.679Z,97924.25
2018-06-04T23:23:08.142Z,97918.77
2018-06-04T23:25:36.755Z,97914.41
2018-06-04T23:28:05.214Z,97919.47
2018-06-04T23:30:33.711Z,97912.84
2018-06-04T23:33:02.115Z,97915.10
2018-06-04T23:35:30.539Z,97915.41
2018-06-04T23:37:59.033Z,97917.77
2018-06-04T23:40:27.542Z,97909.55
2018-06-04T23:42:55.965Z,97911.88
2018-06-04T23:45:24.359Z,97911.97
2018-06-04T23:47:52.746Z,97908.33
2018-06-04T23:50:21.238Z,97914.74
2018-06-04T23:52:49.689Z,97914.88
2018-06-04T23:55:18.168Z,97920.11
2018-06-04T23:57:46.537Z,97927.26
